Time;durP1;ratioP1;P1;durP2;ratioP2;P2;SDS_P1;SDS_P2;PMS_P1;PMS_P2;Temp;Humidity;BMP_temperature;BMP_pressure;BME280_temperature;BME280_humidity;BME280_pressure;Samples;Min_cycle;Max_cycle;Signal;HPM_P1;HPM_P2
2023/12/11 00:01:49;;;;;;;3.58;1.30;;;;;;;1.52;86.51;98965.00;5087089;28;20016;-66
2023/12/11 00:04:14;;;;;;;0.50;0.50;;;;;;;1.56;86.46;98971.84;5086797;28;20027;-65
2023/12/11 00:06:40;;;;;;;1.00;1.00;;;;;;;1.60;86.08;98964.19;5086807;28;20012;-65
2023/12/11 00:09:05;;;;;;;0.50;0.50;;;;;;;1.57;86.38;98961.63;5087009;28;20029;-64
2023/12/11 00:11:31;;;;;;;2.72;0.88;;;;;;;1.53;86.72;98971.81;5086816;28;20040;-64
2023/12/11 00:13:56;;;;;;;1.02;1.02;;;;;;;1.54;86.70;98965.84;5086780;28;20024;-64
2023/12/11 00:16:22;;;;;;;1.52;1.42;;;;;;;1.51;86.55;98943.69;5086944;28;20088;-67
2023/12/11 00:18:48;;;;;;;0.60;0.60;;;;;;;1.62;86.09;98956.53;5086595;28;20096;-65
2023/12/11 00:21:14;;;;;;;1.00;0.90;;;;;;;1.60;86.32;98953.97;5086663;28;20458;-64
2023/12/11 00:23:40;;;;;;;0.68;0.60;;;;;;;1.56;86.40;98956.50;5085720;28;20096;-65
2023/12/11 00:26:05;;;;;;;0.60;0.60;;;;;;;1.50;86.54;98951.34;5086477;28;20025;-64
2023/12/11 00:28:31;;;;;;;1.00;0.80;;;;;;;1.61;86.25;98949.72;5068389;28;20083;-65
2023/12/11 00:30:56;;;;;;;1.38;0.98;;;;;;;1.62;86.38;98936.06;5086558;28;20255;-65
2023/12/11 00:33:21;;;;;;;0.52;0.52;;;;;;;1.54;86.98;98938.59;5068400;28;20058;-65
2023/12/11 00:35:47;;;;;;;0.50;0.50;;;;;;;1.53;86.86;98928.34;5086450;28;20048;-65
2023/12/11 00:38:12;;;;;;;0.50;0.50;;;;;;;1.56;86.95;98941.16;5086222;28;20070;-65
2023/12/11 00:40:37;;;;;;;0.93;0.93;;;;;;;1.56;86.89;98946.25;5086167;28;20023;-64
2023/12/11 00:43:03;;;;;;;0.85;0.85;;;;;;;1.54;86.94;98935.16;5086295;28;20023;-65
2023/12/11 00:45:29;;;;;;;0.65;0.65;;;;;;;1.49;87.05;98927.47;5086046;28;20046;-65
2023/12/11 00:47:54;;;;;;;1.05;0.75;;;;;;;1.51;87.33;98930.91;5086048;28;20052;-66
2023/12/11 00:50:20;;;;;;;0.55;0.55;;;;;;;1.55;87.18;98944.56;5085948;28;20021;-65
2023/12/11 00:52:45;;;;;;;0.40;0.40;;;;;;;1.55;87.32;98942.84;5085883;28;20024;-65
2023/12/11 00:55:10;;;;;;;0.50;0.50;;;;;;;1.50;87.35;98936.88;5067918;28;20024;-64
2023/12/11 00:57:36;;;;;;;0.50;0.50;;;;;;;1.47;87.38;98924.91;5085682;28;20094;-64
2023/12/11 01:00:02;;;;;;;0.55;0.55;;;;;;;1.47;87.50;98932.56;5085661;28;20465;-64
2023/12/11 01:02:27;;;;;;;1.60;1.50;;;;;;;1.50;87.66;98948.78;5085748;28;20031;-65
2023/12/11 01:04:53;;;;;;;0.70;0.70;;;;;;;1.51;87.63;98932.59;5085616;28;20024;-65
2023/12/11 01:07:18;;;;;;;1.08;1.00;;;;;;;1.47;87.74;98927.47;5067305;28;20024;-65
2023/12/11 01:09:44;;;;;;;1.02;0.98;;;;;;;1.46;87.57;98918.09;5085498;28;20036;-64
2023/12/11 01:12:09;;;;;;;0.50;0.50;;;;;;;1.41;87.82;98922.31;5085561;28;20020;-65
2023/12/11 01:14:37;;;;;;;0.52;0.52;;;;;;;1.43;87.98;98925.75;5067526;28;20070;-64
2023/12/11 01:17:03;;;;;;;0.50;0.50;;;;;;;1.43;87.74;98928.31;5085265;28;20052;-65
2023/12/11 01:19:28;;;;;;;0.50;0.50;;;;;;;1.43;87.94;98927.44;5066922;28;20074;-66
2023/12/11 01:21:54;;;;;;;0.50;0.50;;;;;;;1.42;88.25;98923.19;5085713;28;20051;-64
2023/12/11 01:24:19;;;;;;;0.55;0.55;;;;;;;1.45;87.98;98946.22;5085472;28;20082;-64
2023/12/11 01:26:44;;;;;;;0.50;0.50;;;;;;;1.38;88.37;98929.97;5067374;28;20051;-65
2023/12/11 01:29:10;;;;;;;0.68;0.68;;;;;;;1.32;88.64;98914.59;5085176;28;20084;-65
2023/12/11 01:31:35;;;;;;;0.57;0.57;;;;;;;1.40;88.62;98929.97;5085336;28;20066;-65
2023/12/11 01:34:00;;;;;;;0.77;0.77;;;;;;;1.31;88.56;98913.75;5084968;28;20036;-65
2023/12/11 01:36:26;;;;;;;1.65;1.55;;;;;;;1.36;88.61;98911.19;5085211;28;20031;-66
2023/12/11 01:38:51;;;;;;;0.80;0.80;;;;;;;1.28;88.77;98900.09;5067066;28;20117;-66
2023/12/11 01:41:17;;;;;;;0.80;0.80;;;;;;;1.34;88.49;98916.31;5084817;28;20021;-64
2023/12/11 01:43:51;;;;;;;0.65;0.65;;;;;;;1.25;89.04;98903.47;5085334;28;20089;-66
2023/12/11 01:46:18;;;;;;;0.50;0.50;;;;;;;1.29;88.98;98906.91;5085143;28;20025;-65
2023/12/11 01:48:45;;;;;;;2.05;0.77;;;;;;;1.24;89.32;98912.00;5084977;28;20030;-65
2023/12/11 01:51:12;;;;;;;0.50;0.50;;;;;;;1.20;88.92;98902.59;5084953;28;20158;-64
2023/12/11 01:53:38;;;;;;;0.50;0.50;;;;;;;1.19;89.23;98903.44;5066794;28;20051;-64
2023/12/11 01:56:04;;;;;;;0.60;0.60;;;;;;;1.16;89.25;98911.09;5084835;28;20024;-64
2023/12/11 01:58:30;;;;;;;0.50;0.50;;;;;;;1.13;89.78;98911.94;5084998;28;20032;-65
2023/12/11 02:00:55;;;;;;;0.50;0.50;;;;;;;1.11;89.69;98911.06;5084894;28;20048;-65
2023/12/11 02:03:22;;;;;;;0.50;0.50;;;;;;;1.10;90.04;98901.72;5085098;28;20038;-65
2023/12/11 02:05:49;;;;;;;0.40;0.40;;;;;;;1.04;90.04;98896.56;5084767;28;20071;-65
2023/12/11 02:08:15;;;;;;;0.50;0.50;;;;;;;1.06;90.19;98897.41;5084638;28;20035;-65
2023/12/11 02:10:41;;;;;;;0.88;0.88;;;;;;;1.04;90.44;98897.41;5066840;28;20120;-64
2023/12/11 02:13:06;;;;;;;0.50;0.50;;;;;;;1.02;90.52;98899.13;5084842;28;20028;-64
2023/12/11 02:15:43;;;;;;;0.50;0.50;;;;;;;0.96;90.49;98892.25;5084704;28;20020;-66
2023/12/11 02:18:10;;;;;;;0.50;0.50;;;;;;;1.01;90.60;98894.00;5084890;28;20024;-66
2023/12/11 02:20:37;;;;;;;1.70;1.20;;;;;;;0.91;90.65;98890.53;5066660;28;20073;-68
2023/12/11 02:23:35;;;;;;;0.70;0.70;;;;;;;0.90;90.73;98892.22;5085020;28;20032;-69
2023/12/11 02:26:13;;;;;;;1.00;1.00;;;;;;;0.84;90.97;98894.72;5083745;28;20033;-67
2023/12/11 02:28:39;;;;;;;1.33;1.08;;;;;;;0.74;90.94;98873.34;5084344;28;20028;-67
2023/12/11 02:31:05;;;;;;;1.60;1.08;;;;;;;0.76;91.15;98870.81;5066826;28;20096;-68
2023/12/11 02:33:30;;;;;;;2.15;1.10;;;;;;;0.69;91.10;98872.47;5066661;28;20024;-68
2023/12/11 02:35:56;;;;;;;1.17;0.80;;;;;;;0.68;91.14;98880.97;5084582;28;20021;-69
2023/12/11 02:38:21;;;;;;;2.30;1.20;;;;;;;0.61;91.49;98887.75;5084498;28;20089;-70
2023/12/11 02:40:46;;;;;;;0.52;0.52;;;;;;;0.61;91.58;98877.53;5084066;28;20034;-71
2023/12/11 02:43:12;;;;;;;0.50;0.50;;;;;;;0.58;91.76;98872.41;5084576;28;20021;-72
2023/12/11 02:45:37;;;;;;;1.33;0.65;;;;;;;0.59;91.82;98874.13;5084567;28;20063;-72
2023/12/11 02:48:03;;;;;;;1.38;1.30;;;;;;;0.54;92.20;98876.66;5069307;28;20024;-72
2023/12/11 02:50:32;;;;;;;0.80;0.80;;;;;;;0.51;92.24;98870.66;5088291;28;20546;-71
2023/12/11 02:53:02;;;;;;;0.50;0.50;;;;;;;0.48;92.38;98869.78;5070380;28;20108;-71
2023/12/11 02:55:28;;;;;;;0.60;0.60;;;;;;;0.53;92.57;98872.34;5088287;28;20099;-70
2023/12/11 02:58:01;;;;;;;0.50;0.50;;;;;;;0.46;92.80;98868.06;5087997;28;20037;-70
2023/12/11 03:00:27;;;;;;;0.80;0.80;;;;;;;0.46;93.22;98861.25;5088422;28;20023;-71
2023/12/11 03:02:53;;;;;;;0.82;0.82;;;;;;;0.46;93.18;98862.97;5087939;28;20024;-71
2023/12/11 03:05:18;;;;;;;0.90;0.90;;;;;;;0.45;93.18;98858.66;5087913;28;20024;-72
2023/12/11 03:07:44;;;;;;;0.50;0.50;;;;;;;0.43;93.72;98862.94;5088205;28;20132;-71
2023/12/11 03:10:09;;;;;;;0.60;0.60;;;;;;;0.40;93.62;98857.81;5087946;28;20479;-71
2023/12/11 03:12:35;;;;;;;0.50;0.50;;;;;;;0.42;93.73;98861.19;5088018;28;20107;-70
2023/12/11 03:15:01;;;;;;;0.65;0.65;;;;;;;0.41;93.88;98860.38;5069852;28;20035;-71
2023/12/11 03:17:26;;;;;;;0.60;0.60;;;;;;;0.33;93.90;98854.34;5069775;28;20031;-70
2023/12/11 03:19:53;;;;;;;0.90;0.77;;;;;;;0.32;94.00;98863.69;5087885;28;20016;-70
2023/12/11 03:22:18;;;;;;;0.55;0.55;;;;;;;0.32;94.11;98856.03;5087745;28;20033;-70
2023/12/11 03:24:44;;;;;;;1.95;1.85;;;;;;;0.29;94.25;98865.38;5087882;28;20025;-71
2023/12/11 03:27:09;;;;;;;0.90;0.90;;;;;;;0.24;94.41;98855.09;5087779;28;20047;-71
2023/12/11 03:29:35;;;;;;;0.70;0.70;;;;;;;0.26;94.43;98865.34;5087412;28;20029;-72
2023/12/11 03:32:00;;;;;;;3.40;1.40;;;;;;;0.21;94.48;98863.59;5088325;28;20017;-71
2023/12/11 03:34:26;;;;;;;0.50;0.50;;;;;;;0.19;94.64;98867.00;5087377;28;20056;-72
2023/12/11 03:36:51;;;;;;;0.90;0.90;;;;;;;0.18;94.76;98857.59;5069778;28;20552;-74
2023/12/11 03:39:16;;;;;;;0.90;0.90;;;;;;;0.20;95.03;98863.59;5069520;28;20142;-72
2023/12/11 03:41:44;;;;;;;0.63;0.63;;;;;;;0.18;95.09;98863.56;5087603;28;20050;-72
2023/12/11 03:44:09;;;;;;;0.60;0.60;;;;;;;0.20;95.16;98859.34;5087500;28;20035;-72
2023/12/11 03:46:35;;;;;;;1.35;1.10;;;;;;;0.16;95.14;98860.13;5087682;28;20016;-72
2023/12/11 03:49:00;;;;;;;0.80;0.80;;;;;;;0.19;95.08;98865.28;5069112;28;20050;-72
2023/12/11 03:51:25;;;;;;;1.85;1.70;;;;;;;0.20;95.26;98861.91;5087345;28;20035;-72
2023/12/11 03:53:51;;;;;;;1.08;1.00;;;;;;;0.09;95.39;98850.72;5087266;28;20086;-72
2023/12/11 03:56:16;;;;;;;0.95;0.80;;;;;;;0.21;95.47;98866.16;5068996;28;20071;-73
2023/12/11 03:58:42;;;;;;;0.90;0.90;;;;;;;0.20;95.46;98861.91;5087086;28;20056;-73
2023/12/11 04:01:07;;;;;;;0.50;0.50;;;;;;;0.21;95.65;98876.34;5086963;28;20016;-72
2023/12/11 04:03:33;;;;;;;3.03;2.25;;;;;;;0.26;95.73;98873.00;5087028;28;20020;-73
2023/12/11 04:05:58;;;;;;;0.60;0.60;;;;;;;0.26;96.20;98875.56;5087113;28;20017;-74
2023/12/11 04:08:23;;;;;;;1.15;1.02;;;;;;;0.26;95.82;98867.91;5068841;28;20091;-73
2023/12/11 04:10:49;;;;;;;0.60;0.60;;;;;;;0.24;96.16;98867.88;5086868;28;20029;-74
2023/12/11 04:13:15;;;;;;;0.50;0.50;;;;;;;0.24;95.89;98868.72;5086996;28;20028;-72
2023/12/11 04:15:40;;;;;;;0.75;0.75;;;;;;;0.22;96.00;98860.19;5087054;28;20490;-72
2023/12/11 04:18:06;;;;;;;0.82;0.82;;;;;;;0.22;96.10;98862.75;5086816;28;20052;-72
2023/12/11 04:20:31;;;;;;;0.60;0.60;;;;;;;0.26;96.27;98860.25;5086457;28;20024;-72
2023/12/11 04:22:57;;;;;;;0.43;0.43;;;;;;;0.27;96.67;98857.72;5086894;28;20084;-73
2023/12/11 04:25:22;;;;;;;1.08;0.80;;;;;;;0.23;96.27;98859.38;5087238;28;20123;-73
2023/12/11 04:27:47;;;;;;;1.75;1.23;;;;;;;0.16;96.32;98849.94;5087138;28;20028;-73
2023/12/11 04:30:13;;;;;;;0.57;0.57;;;;;;;0.20;96.51;98851.69;5068758;28;20100;-72
2023/12/11 04:32:39;;;;;;;0.85;0.85;;;;;;;0.22;96.51;98852.53;5086707;28;20081;-72
2023/12/11 04:35:05;;;;;;;0.95;0.95;;;;;;;0.17;96.71;98850.81;5086236;28;20088;-73
2023/12/11 04:37:30;;;;;;;0.80;0.80;;;;;;;0.15;96.52;98843.13;5086183;28;20080;-72
2023/12/11 04:39:56;;;;;;;0.50;0.50;;;;;;;0.19;96.68;98849.97;5086622;28;20025;-72
2023/12/11 04:42:21;;;;;;;1.27;1.17;;;;;;;0.19;96.61;98856.78;5086562;28;20028;-73
2023/12/11 04:44:46;;;;;;;0.60;0.60;;;;;;;0.19;96.70;98865.28;5068389;28;20283;-73
2023/12/11 04:47:12;;;;;;;0.93;0.82;;;;;;;0.16;96.65;98855.03;5086398;28;20024;-73
2023/12/11 04:49:37;;;;;;;1.23;1.13;;;;;;;0.14;96.91;98850.78;5085986;28;20473;-72
2023/12/11 04:52:03;;;;;;;0.50;0.50;;;;;;;0.14;96.88;98838.00;5068364;28;20035;-73
2023/12/11 04:54:28;;;;;;;0.50;0.50;;;;;;;0.15;96.95;98845.69;5086030;28;20035;-73
2023/12/11 04:56:54;;;;;;;1.60;1.52;;;;;;;0.16;97.12;98846.53;5085836;28;20043;-73
2023/12/11 04:59:19;;;;;;;1.00;1.00;;;;;;;0.15;97.15;98842.25;5086125;28;20025;-73
2023/12/11 05:01:45;;;;;;;1.40;1.30;;;;;;;0.19;97.21;98841.47;5085988;28;20020;-73
2023/12/11 05:04:10;;;;;;;0.60;0.60;;;;;;;0.17;97.45;98838.91;5085906;28;20025;-74
2023/12/11 05:06:35;;;;;;;1.30;1.00;;;;;;;0.21;97.26;98844.88;5067801;28;20086;-71
2023/12/11 05:09:01;;;;;;;0.60;0.60;;;;;;;0.16;97.39;98828.69;5085738;28;20181;-73
2023/12/11 05:11:26;;;;;;;0.60;0.60;;;;;;;0.22;97.46;98837.22;5085146;28;20449;-72
2023/12/11 05:13:51;;;;;;;0.50;0.50;;;;;;;0.26;97.54;98837.28;5067750;28;20031;-72
2023/12/11 05:16:17;;;;;;;0.50;0.50;;;;;;;0.26;97.63;98847.47;5085743;28;20021;-71
2023/12/11 05:18:42;;;;;;;0.50;0.50;;;;;;;0.26;97.76;98845.78;5085523;28;20107;-71
2023/12/11 05:21:09;;;;;;;0.40;0.40;;;;;;;0.31;97.83;98840.69;5067442;28;20116;-71
2023/12/11 05:23:34;;;;;;;0.40;0.40;;;;;;;0.27;97.79;98844.06;5085369;28;20035;-71
2023/12/11 05:26:00;;;;;;;0.50;0.50;;;;;;;0.28;97.78;98839.00;5085483;28;20020;-71
2023/12/11 05:28:25;;;;;;;0.50;0.50;;;;;;;0.27;97.94;98838.97;5067089;28;20055;-70
2023/12/11 05:30:51;;;;;;;0.40;0.40;;;;;;;0.33;97.88;98846.69;5067094;28;20025;-69
2023/12/11 05:33:16;;;;;;;0.50;0.50;;;;;;;0.31;97.95;98841.56;5085563;28;20487;-71
2023/12/11 05:35:41;;;;;;;0.50;0.50;;;;;;;0.33;97.79;98836.47;5085314;28;20070;-72
2023/12/11 05:38:07;;;;;;;0.47;0.47;;;;;;;0.33;97.62;98846.69;5085024;28;20025;-72
2023/12/11 05:40:32;;;;;;;0.40;0.40;;;;;;;0.31;97.92;98840.69;5085385;28;20084;-72
2023/12/11 05:42:57;;;;;;;0.50;0.50;;;;;;;0.32;97.71;98839.88;5084405;28;20032;-71
2023/12/11 05:45:23;;;;;;;0.50;0.50;;;;;;;0.34;98.05;98844.13;5085004;28;20098;-71
2023/12/11 05:47:49;;;;;;;0.50;0.50;;;;;;;0.34;97.93;98833.06;5084976;28;20059;-72
2023/12/11 05:50:14;;;;;;;0.50;0.50;;;;;;;0.27;98.16;98831.31;5067043;28;20024;-73
2023/12/11 05:52:40;;;;;;;0.50;0.50;;;;;;;0.42;98.01;98845.88;5067122;28;20027;-73
2023/12/11 05:55:06;;;;;;;0.50;0.50;;;;;;;0.36;97.98;98842.47;5067336;28;20024;-71
2023/12/11 05:57:31;;;;;;;0.50;0.50;;;;;;;0.36;98.07;98846.69;5067001;28;20119;-71
2023/12/11 05:59:56;;;;;;;0.50;0.50;;;;;;;0.42;98.24;98848.44;5085060;28;20086;-72
2023/12/11 06:02:23;;;;;;;0.40;0.40;;;;;;;0.42;98.44;98856.09;5085066;28;20021;-72
2023/12/11 06:04:48;;;;;;;0.50;0.50;;;;;;;0.39;98.48;98854.38;5084920;28;20046;-72
2023/12/11 06:07:14;;;;;;;0.70;0.70;;;;;;;0.41;98.27;98855.25;5066973;28;20025;-72
2023/12/11 06:09:39;;;;;;;1.83;1.73;;;;;;;0.45;98.42;98864.66;5084864;28;20020;-72
2023/12/11 06:12:05;;;;;;;0.50;0.50;;;;;;;0.47;98.39;98850.19;5084922;28;20175;-71
2023/12/11 06:14:31;;;;;;;0.40;0.40;;;;;;;0.47;98.45;98849.34;5066854;28;20016;-72
2023/12/11 06:16:56;;;;;;;0.50;0.50;;;;;;;0.45;98.46;98846.78;5084575;28;20035;-71
2023/12/11 06:19:22;;;;;;;0.50;0.50;;;;;;;0.52;98.35;98846.81;5066539;28;20024;-71
2023/12/11 06:21:48;;;;;;;0.50;0.50;;;;;;;0.46;98.49;98851.03;5085675;28;20454;-72
2023/12/11 06:24:13;;;;;;;0.50;0.50;;;;;;;0.49;98.51;98852.75;5089304;28;20020;-72
2023/12/11 06:26:42;;;;;;;0.50;0.50;;;;;;;0.35;98.46;98824.56;5089080;28;20051;-72
2023/12/11 06:29:08;;;;;;;0.50;0.50;;;;;;;0.46;98.69;98851.03;5070820;28;20024;-71
2023/12/11 06:31:34;;;;;;;0.50;0.50;;;;;;;0.46;98.92;98848.47;5088707;28;20024;-72
2023/12/11 06:33:59;;;;;;;0.50;0.50;;;;;;;0.48;98.77;98849.34;5088869;28;20040;-73
2023/12/11 06:36:28;;;;;;;0.50;0.50;;;;;;;0.55;98.69;98855.34;5088736;28;20027;-73
2023/12/11 06:38:54;;;;;;;0.50;0.50;;;;;;;0.53;98.67;98859.59;5070675;28;20062;-72
2023/12/11 06:41:19;;;;;;;0.50;0.50;;;;;;;0.56;98.80;98859.63;5070854;28;20021;-73
2023/12/11 06:43:49;;;;;;;0.40;0.40;;;;;;;0.55;98.80;98862.16;5088815;28;20084;-72
2023/12/11 06:46:15;;;;;;;0.50;0.50;;;;;;;0.57;98.68;98860.47;5088664;28;20094;-72
2023/12/11 06:48:40;;;;;;;0.50;0.50;;;;;;;0.56;98.81;98862.16;5088672;28;20020;-72
2023/12/11 06:51:06;;;;;;;0.50;0.50;;;;;;;0.60;98.33;98855.38;5088431;28;20472;-72
2023/12/11 06:53:32;;;;;;;0.50;0.50;;;;;;;0.56;98.32;98857.06;5088689;28;20052;-71
2023/12/11 06:55:57;;;;;;;0.50;0.50;;;;;;;0.57;98.28;98860.47;5088595;28;20433;-71
2023/12/11 06:58:22;;;;;;;0.50;0.50;;;;;;;0.59;98.14;98856.25;5088226;28;20139;-71
2023/12/11 07:00:50;;;;;;;0.50;0.50;;;;;;;0.55;98.29;98862.16;5070407;28;20073;-72
2023/12/11 07:03:15;;;;;;;0.50;0.50;;;;;;;0.56;98.85;98858.78;5088201;28;20031;-72
2023/12/11 07:05:43;;;;;;;0.50;0.50;;;;;;;0.59;98.55;98864.75;5088170;28;20269;-70
2023/12/11 07:08:08;;;;;;;0.50;0.50;;;;;;;0.59;98.42;98851.13;5070225;28;20082;-71
2023/12/11 07:10:34;;;;;;;0.60;0.60;;;;;;;0.57;98.70;98861.34;5087575;28;20396;-71
2023/12/11 07:12:59;;;;;;;0.50;0.50;;;;;;;0.55;98.91;98855.34;5088234;28;20158;-71
2023/12/11 07:15:24;;;;;;;0.45;0.45;;;;;;;0.60;98.62;98853.69;5088086;28;20092;-71
2023/12/11 07:17:50;;;;;;;0.50;0.50;;;;;;;0.61;98.70;98857.97;5087908;28;20083;-72
2023/12/11 07:20:15;;;;;;;0.40;0.40;;;;;;;0.60;98.73;98861.38;5069923;28;20111;-71
2023/12/11 07:22:40;;;;;;;0.50;0.50;;;;;;;0.57;98.73;98860.47;5069728;28;20151;-71
2023/12/11 07:25:06;;;;;;;0.60;0.60;;;;;;;0.63;98.87;98870.72;5087813;28;20029;-72
2023/12/11 07:27:33;;;;;;;0.40;0.40;;;;;;;0.62;98.96;98874.16;5088043;28;20088;-70
2023/12/11 07:29:59;;;;;;;0.50;0.50;;;;;;;0.67;98.61;98871.63;5087594;28;20046;-71
2023/12/11 07:32:25;;;;;;;0.40;0.40;;;;;;;0.64;98.66;98872.44;5087357;28;20048;-71
2023/12/11 07:34:50;;;;;;;0.40;0.40;;;;;;;0.65;99.03;98869.06;5087723;28;20027;-71
2023/12/11 07:37:15;;;;;;;0.40;0.40;;;;;;;0.66;98.89;98872.44;5087777;28;20047;-71
2023/12/11 07:39:41;;;;;;;0.50;0.50;;;;;;;0.66;98.86;98873.31;5087743;28;20032;-72
2023/12/11 07:42:06;;;;;;;0.50;0.50;;;;;;;0.68;98.53;98876.75;5087332;28;20031;-72
2023/12/11 07:44:31;;;;;;;0.50;0.50;;;;;;;0.69;98.23;98875.88;5087502;28;20021;-71
2023/12/11 07:46:57;;;;;;;0.43;0.43;;;;;;;0.69;98.65;98881.00;5069598;28;20024;-71
2023/12/11 07:49:22;;;;;;;0.40;0.40;;;;;;;0.69;98.59;98870.78;5087120;28;20024;-70
2023/12/11 07:51:48;;;;;;;0.50;0.50;;;;;;;0.71;98.93;98883.56;5069251;28;20021;-71
2023/12/11 07:54:13;;;;;;;0.50;0.50;;;;;;;0.69;98.96;98885.25;5087719;28;20016;-71
2023/12/11 07:56:40;;;;;;;0.40;0.40;;;;;;;0.66;98.75;98880.09;5087423;28;20045;-71
2023/12/11 07:59:06;;;;;;;0.40;0.40;;;;;;;0.70;98.65;98887.81;5087631;28;20025;-71
2023/12/11 08:01:32;;;;;;;0.40;0.40;;;;;;;0.70;98.86;98890.34;5087585;28;20032;-71
2023/12/11 08:03:58;;;;;;;0.50;0.50;;;;;;;0.69;99.13;98888.66;5087364;28;20059;-71
2023/12/11 08:06:24;;;;;;;0.50;0.50;;;;;;;0.66;98.92;98888.63;5087159;28;20020;-70
2023/12/11 08:08:49;;;;;;;0.70;0.70;;;;;;;0.65;99.08;98883.53;5086980;28;20028;-70
2023/12/11 08:11:21;;;;;;;0.50;0.50;;;;;;;0.72;98.95;98896.34;5087073;28;20084;-69
2023/12/11 08:13:46;;;;;;;0.60;0.60;;;;;;;0.72;98.89;98900.59;5087187;28;20247;-70
2023/12/11 08:16:13;;;;;;;3.33;1.95;;;;;;;0.66;98.94;98891.19;5087085;28;20393;-70
2023/12/11 08:18:40;;;;;;;0.40;0.40;;;;;;;0.67;98.91;98892.91;5086617;28;20032;-70
2023/12/11 08:21:06;;;;;;;0.50;0.50;;;;;;;0.65;99.02;98898.84;5086645;28;20052;-71
2023/12/11 08:23:31;;;;;;;0.50;0.50;;;;;;;0.68;99.03;98906.53;5086987;28;20024;-70
2023/12/11 08:25:57;;;;;;;0.50;0.50;;;;;;;0.66;98.95;98909.06;5086616;28;20456;-70
2023/12/11 08:28:22;;;;;;;0.50;0.50;;;;;;;0.64;99.03;98907.38;5086553;28;20029;-69
2023/12/11 08:30:47;;;;;;;0.40;0.40;;;;;;;0.63;98.94;98903.94;5086512;28;20021;-70
2023/12/11 08:33:13;;;;;;;0.40;0.40;;;;;;;0.63;98.91;98910.75;5086670;28;20029;-70
2023/12/11 08:35:39;;;;;;;0.60;0.60;;;;;;;0.61;98.85;98903.06;5086443;28;20028;-70
2023/12/11 08:38:04;;;;;;;0.50;0.50;;;;;;;0.63;99.08;98906.50;5086472;28;20517;-70
2023/12/11 08:40:31;;;;;;;0.50;0.50;;;;;;;0.56;99.16;98902.19;5068609;28;20108;-70
2023/12/11 08:42:57;;;;;;;0.45;0.45;;;;;;;0.58;99.33;98898.81;5068543;28;20111;-69
2023/12/11 08:45:23;;;;;;;0.40;0.40;;;;;;;0.61;99.17;98914.16;5085570;28;20024;-70
2023/12/11 08:47:48;;;;;;;0.60;0.60;;;;;;;0.62;99.30;98909.91;5086211;28;20040;-70
2023/12/11 08:50:14;;;;;;;0.40;0.40;;;;;;;0.63;99.35;98910.75;5086208;28;20021;-70
2023/12/11 08:52:41;;;;;;;0.40;0.40;;;;;;;0.60;99.34;98917.56;5086094;28;20031;-71
2023/12/11 08:55:07;;;;;;;0.50;0.50;;;;;;;0.68;99.12;98922.72;5086260;28;20024;-70
2023/12/11 08:57:34;;;;;;;0.40;0.40;;;;;;;0.63;99.30;98914.16;5085775;28;20059;-69
2023/12/11 08:59:59;;;;;;;0.40;0.40;;;;;;;0.64;99.17;98920.97;5086224;28;20024;-70
2023/12/11 09:02:25;;;;;;;0.50;0.50;;;;;;;0.64;99.44;98928.63;5086102;28;20179;-70
2023/12/11 09:04:50;;;;;;;0.50;0.50;;;;;;;0.64;99.39;98923.53;5085563;28;20048;-71
2023/12/11 09:07:16;;;;;;;0.40;0.40;;;;;;;0.68;99.55;98924.41;5085972;28;20538;-70
2023/12/11 09:09:41;;;;;;;0.57;0.57;;;;;;;0.64;99.46;98927.78;5085705;28;20091;-70
2023/12/11 09:12:06;;;;;;;0.50;0.50;;;;;;;0.53;99.35;98904.72;5085804;28;20028;-70
2023/12/11 09:14:35;;;;;;;0.40;0.40;;;;;;;0.65;99.46;98924.38;5085772;28;20048;-70
2023/12/11 09:17:01;;;;;;;0.50;0.50;;;;;;;0.69;99.22;98934.63;5085680;28;20029;-69
2023/12/11 09:19:28;;;;;;;0.40;0.40;;;;;;;0.73;99.36;98940.63;5085694;28;20035;-70
2023/12/11 09:21:53;;;;;;;0.50;0.50;;;;;;;0.77;99.28;98954.31;5085472;28;20024;-70
2023/12/11 09:24:19;;;;;;;0.50;0.50;;;;;;;0.78;99.10;98943.22;5067534;28;20062;-70
2023/12/11 09:26:44;;;;;;;0.40;0.40;;;;;;;0.74;99.33;98944.91;5068098;28;20027;-71
2023/12/11 09:29:10;;;;;;;0.50;0.50;;;;;;;0.79;99.13;98947.47;5085478;28;20024;-70
2023/12/11 09:31:36;;;;;;;0.40;0.40;;;;;;;0.77;99.28;98942.38;5085493;28;20104;-70
2023/12/11 09:34:03;;;;;;;0.50;0.50;;;;;;;0.79;98.91;98942.38;5085542;28;20048;-70
2023/12/11 09:36:28;;;;;;;0.50;0.50;;;;;;;0.76;99.02;98942.34;5085526;28;20020;-70
2023/12/11 09:38:55;;;;;;;0.50;0.50;;;;;;;0.78;98.85;98946.66;5085165;28;20020;-70
2023/12/11 09:41:21;;;;;;;0.50;0.50;;;;;;;0.77;99.14;98947.47;5085372;28;20016;-71
2023/12/11 09:43:47;;;;;;;0.50;0.50;;;;;;;0.76;99.02;98948.31;5067180;28;20021;-70
2023/12/11 09:46:16;;;;;;;0.40;0.40;;;;;;;0.72;99.24;98952.53;5085408;28;20080;-70
2023/12/11 09:48:42;;;;;;;0.50;0.50;;;;;;;0.72;99.19;98942.31;5067417;28;20070;-71
2023/12/11 09:51:08;;;;;;;0.40;0.40;;;;;;;0.78;99.55;98953.44;5067113;28;20048;-71
2023/12/11 09:53:36;;;;;;;0.50;0.50;;;;;;;0.75;99.36;98946.63;5067042;28;20036;-70
2023/12/11 09:56:02;;;;;;;0.52;0.52;;;;;;;0.83;99.49;98959.47;5085140;28;20025;-70
2023/12/11 09:58:28;;;;;;;0.63;0.63;;;;;;;0.85;99.34;98952.63;5085123;28;20055;-70
2023/12/11 10:01:00;;;;;;;0.40;0.40;;;;;;;0.85;99.28;98952.63;5067153;28;20024;-70
2023/12/11 10:03:29;;;;;;;0.43;0.43;;;;;;;0.78;99.00;98945.78;5067109;28;20031;-70
2023/12/11 10:05:59;;;;;;;0.45;0.45;;;;;;;0.82;99.46;98960.28;5085122;28;20036;-71
2023/12/11 10:08:24;;;;;;;0.50;0.50;;;;;;;0.82;99.11;98965.38;5085234;28;20056;-70
2023/12/11 10:11:07;;;;;;;0.40;0.40;;;;;;;0.78;99.10;98953.44;5084856;28;20039;-70
2023/12/11 10:13:33;;;;;;;0.40;0.40;;;;;;;0.73;99.22;98956.84;5066961;28;20036;-70
2023/12/11 10:15:58;;;;;;;0.45;0.45;;;;;;;0.74;99.21;98963.66;5085172;28;20024;-70
2023/12/11 10:18:24;;;;;;;0.50;0.50;;;;;;;0.74;99.26;98970.44;5084965;28;20089;-70
2023/12/11 10:20:54;;;;;;;0.45;0.45;;;;;;;0.77;99.23;98967.06;5084920;28;20086;-71
2023/12/11 10:23:23;;;;;;;0.40;0.40;;;;;;;0.77;99.26;98964.53;5085088;28;20036;-71
2023/12/11 10:25:51;;;;;;;0.50;0.50;;;;;;;0.78;98.96;98956.00;5085141;28;20032;-70
2023/12/11 10:28:19;;;;;;;0.50;0.50;;;;;;;0.76;99.14;98962.78;5084918;28;20027;-72
2023/12/11 10:30:47;;;;;;;0.50;0.50;;;;;;;0.76;99.23;98970.44;5084881;28;20048;-71
2023/12/11 10:33:12;;;;;;;0.50;0.50;;;;;;;0.73;99.23;98963.63;5084973;28;20150;-72
2023/12/11 10:35:38;;;;;;;0.40;0.40;;;;;;;0.76;99.22;98970.44;5084977;28;20027;-71
2023/12/11 10:38:03;;;;;;;0.50;0.50;;;;;;;0.70;99.29;98959.34;5066788;28;20059;-70
2023/12/11 10:40:40;;;;;;;0.50;0.50;;;;;;;0.77;99.23;98972.19;5084983;28;20020;-71
2023/12/11 10:43:05;;;;;;;0.50;0.50;;;;;;;0.78;99.37;98971.34;5084865;28;20025;-72
2023/12/11 10:45:32;;;;;;;0.50;0.50;;;;;;;0.79;99.55;98981.56;5067036;28;20030;-71
2023/12/11 10:47:58;;;;;;;0.40;0.40;;;;;;;0.78;99.35;98967.09;5067074;28;20091;-71
2023/12/11 10:50:25;;;;;;;0.50;0.50;;;;;;;0.77;99.37;98969.63;5066905;28;20070;-72
2023/12/11 10:52:50;;;;;;;0.50;0.50;;;;;;;0.83;99.19;98985.84;5084883;28;20028;-72
2023/12/11 10:55:16;;;;;;;0.50;0.50;;;;;;;0.81;99.52;98982.44;5084719;28;20109;-72
2023/12/11 10:57:43;;;;;;;0.50;0.50;;;;;;;0.84;99.38;98977.34;5084281;28;20059;-72
2023/12/11 11:00:13;;;;;;;0.50;0.50;;;;;;;0.90;99.06;98986.75;5084572;28;20027;-72
2023/12/11 11:02:43;;;;;;;0.50;0.50;;;;;;;0.87;99.42;98981.63;5083945;28;20104;-72
2023/12/11 11:05:09;;;;;;;0.50;0.50;;;;;;;0.91;99.61;98983.34;5084135;28;20052;-72
2023/12/11 11:07:38;;;;;;;0.45;0.45;;;;;;;0.94;99.68;98982.53;5066856;28;20021;-71
2023/12/11 11:10:20;;;;;;;0.50;0.50;;;;;;;0.95;99.47;98982.53;5087928;28;20024;-71
2023/12/11 11:12:57;;;;;;;0.63;0.63;;;;;;;1.00;99.39;98997.91;5070209;28;20028;-71
2023/12/11 11:15:24;;;;;;;0.50;0.50;;;;;;;0.99;99.47;98994.50;5070274;28;20104;-71
2023/12/11 11:17:55;;;;;;;1.02;1.02;;;;;;;0.98;99.39;98985.13;5088026;28;20081;-70
2023/12/11 11:20:21;;;;;;;0.50;0.50;;;;;;;1.03;99.49;98986.84;5069885;28;20055;-71
2023/12/11 11:22:46;;;;;;;0.50;0.50;;;;;;;1.06;99.49;98997.97;5088004;28;20028;-71
2023/12/11 11:25:31;;;;;;;0.40;0.40;;;;;;;1.05;99.26;98996.25;5069752;28;20036;-71
2023/12/11 11:27:57;;;;;;;0.50;0.50;;;;;;;1.07;99.51;99001.38;5087827;28;20025;-69
2023/12/11 11:30:48;;;;;;;0.50;0.50;;;;;;;1.11;98.98;98995.44;5087541;28;20082;-70
2023/12/11 11:33:14;;;;;;;0.50;0.50;;;;;;;1.10;98.75;99011.63;5087521;28;20048;-71
2023/12/11 11:35:45;;;;;;;0.40;0.40;;;;;;;1.09;98.95;99009.91;5087561;28;20020;-70
2023/12/11 11:38:11;;;;;;;0.50;0.50;;;;;;;1.07;99.03;99009.03;5087489;28;20099;-69